sensor_id;sensor_type;location;lat;lon;timestamp;P1;durP1;ratioP1;P2;durP2;ratioP2
27804;SDS011;15183;51.350;11.102;2023-06-14T00:02:16;1.63;;;1.50;;
27804;SDS011;15183;51.350;11.102;2023-06-14T00:04:42;2.65;;;1.58;;
27804;SDS011;15183;51.350;11.102;2023-06-14T00:07:08;2.03;;;1.35;;
27804;SDS011;15183;51.350;11.102;2023-06-14T00:09:35;2.70;;;1.40;;
27804;SDS011;15183;51.350;11.102;2023-06-14T00:12:01;4.45;;;1.80;;
27804;SDS011;15183;51.350;11.102;2023-06-14T00:14:28;1.95;;;1.48;;
27804;SDS011;15183;51.350;11.102;2023-06-14T00:16:54;2.00;;;1.75;;
27804;SDS011;15183;51.350;11.102;2023-06-14T00:19:24;3.30;;;1.67;;
27804;SDS011;15183;51.350;11.102;2023-06-14T00:21:51;2.80;;;1.40;;
27804;SDS011;15183;51.350;11.102;2023-06-14T00:24:18;3.15;;;1.40;;
27804;SDS011;15183;51.350;11.102;2023-06-14T00:26:45;2.83;;;1.73;;
27804;SDS011;15183;51.350;11.102;2023-06-14T00:29:12;1.98;;;1.27;;
27804;SDS011;15183;51.350;11.102;2023-06-14T00:31:39;3.03;;;1.20;;
27804;SDS011;15183;51.350;11.102;2023-06-14T00:34:05;2.45;;;1.50;;
27804;SDS011;15183;51.350;11.102;2023-06-14T00:36:31;3.72;;;1.25;;
27804;SDS011;15183;51.350;11.102;2023-06-14T00:38:58;2.03;;;1.20;;
27804;SDS011;15183;51.350;11.102;2023-06-14T00:41:24;1.45;;;1.35;;
27804;SDS011;15183;51.350;11.102;2023-06-14T00:43:51;2.17;;;1.45;;
27804;SDS011;15183;51.350;11.102;2023-06-14T00:46:17;1.95;;;1.40;;
27804;SDS011;15183;51.350;11.102;2023-06-14T00:48:44;1.25;;;1.13;;
27804;SDS011;15183;51.350;11.102;2023-06-14T00:51:11;3.10;;;1.30;;
27804;SDS011;15183;51.350;11.102;2023-06-14T00:53:37;1.30;;;1.20;;
27804;SDS011;15183;51.350;11.102;2023-06-14T00:56:06;3.83;;;1.20;;
27804;SDS011;15183;51.350;11.102;2023-06-14T00:58:32;1.20;;;1.10;;
27804;SDS011;15183;51.350;11.102;2023-06-14T01:00:59;1.15;;;1.00;;
27804;SDS011;15183;51.350;11.102;2023-06-14T01:03:25;1.17;;;1.08;;
27804;SDS011;15183;51.350;11.102;2023-06-14T01:05:57;1.38;;;1.15;;
27804;SDS011;15183;51.350;11.102;2023-06-14T01:08:47;1.95;;;1.23;;
27804;SDS011;15183;51.350;11.102;2023-06-14T01:11:38;1.35;;;1.25;;
27804;SDS011;15183;51.350;11.102;2023-06-14T01:14:16;5.45;;;1.38;;
27804;SDS011;15183;51.350;11.102;2023-06-14T01:16:43;1.48;;;1.15;;
27804;SDS011;15183;51.350;11.102;2023-06-14T01:19:11;1.63;;;1.25;;
27804;SDS011;15183;51.350;11.102;2023-06-14T01:21:39;3.13;;;1.33;;
27804;SDS011;15183;51.350;11.102;2023-06-14T01:24:08;1.55;;;1.13;;
27804;SDS011;15183;51.350;11.102;2023-06-14T01:26:36;1.23;;;1.00;;
27804;SDS011;15183;51.350;11.102;2023-06-14T01:29:12;4.07;;;1.15;;
27804;SDS011;15183;51.350;11.102;2023-06-14T01:31:43;3.05;;;1.20;;
27804;SDS011;15183;51.350;11.102;2023-06-14T01:34:11;1.17;;;1.08;;
27804;SDS011;15183;51.350;11.102;2023-06-14T01:36:37;1.50;;;1.30;;
27804;SDS011;15183;51.350;11.102;2023-06-14T01:39:10;2.97;;;1.40;;
27804;SDS011;15183;51.350;11.102;2023-06-14T01:41:41;1.92;;;1.13;;
27804;SDS011;15183;51.350;11.102;2023-06-14T01:44:09;1.15;;;1.05;;
27804;SDS011;15183;51.350;11.102;2023-06-14T01:46:38;1.25;;;1.02;;
27804;SDS011;15183;51.350;11.102;2023-06-14T01:49:04;1.63;;;1.00;;
27804;SDS011;15183;51.350;11.102;2023-06-14T01:51:31;2.08;;;1.15;;
27804;SDS011;15183;51.350;11.102;2023-06-14T01:53:57;1.80;;;1.10;;
27804;SDS011;15183;51.350;11.102;2023-06-14T01:56:24;2.28;;;0.85;;
27804;SDS011;15183;51.350;11.102;2023-06-14T01:58:51;1.60;;;1.05;;
27804;SDS011;15183;51.350;11.102;2023-06-14T02:01:19;1.50;;;1.40;;
27804;SDS011;15183;51.350;11.102;2023-06-14T02:03:47;1.25;;;1.15;;
27804;SDS011;15183;51.350;11.102;2023-06-14T02:06:14;1.67;;;1.20;;
27804;SDS011;15183;51.350;11.102;2023-06-14T02:08:43;1.85;;;1.30;;
27804;SDS011;15183;51.350;11.102;2023-06-14T02:11:10;1.58;;;1.00;;
27804;SDS011;15183;51.350;11.102;2023-06-14T02:13:37;1.45;;;1.20;;
27804;SDS011;15183;51.350;11.102;2023-06-14T02:16:03;2.78;;;1.25;;
27804;SDS011;15183;51.350;11.102;2023-06-14T02:18:30;3.17;;;1.20;;
27804;SDS011;15183;51.350;11.102;2023-06-14T02:20:56;2.40;;;1.17;;
27804;SDS011;15183;51.350;11.102;2023-06-14T02:23:22;2.78;;;1.20;;
27804;SDS011;15183;51.350;11.102;2023-06-14T02:25:49;1.17;;;1.08;;
27804;SDS011;15183;51.350;11.102;2023-06-14T02:28:15;1.10;;;1.00;;
27804;SDS011;15183;51.350;11.102;2023-06-14T02:30:42;1.48;;;1.10;;
27804;SDS011;15183;51.350;11.102;2023-06-14T02:33:08;2.65;;;1.00;;
27804;SDS011;15183;51.350;11.102;2023-06-14T02:35:38;2.78;;;1.15;;
27804;SDS011;15183;51.350;11.102;2023-06-14T02:38:04;3.08;;;1.00;;
27804;SDS011;15183;51.350;11.102;2023-06-14T02:40:31;1.10;;;0.93;;
27804;SDS011;15183;51.350;11.102;2023-06-14T02:42:57;1.30;;;1.20;;
27804;SDS011;15183;51.350;11.102;2023-06-14T02:45:23;2.30;;;0.93;;
27804;SDS011;15183;51.350;11.102;2023-06-14T02:47:50;1.05;;;0.90;;
27804;SDS011;15183;51.350;11.102;2023-06-14T02:50:17;0.85;;;0.85;;
27804;SDS011;15183;51.350;11.102;2023-06-14T02:52:43;2.72;;;1.20;;
27804;SDS011;15183;51.350;11.102;2023-06-14T02:55:11;1.25;;;0.95;;
27804;SDS011;15183;51.350;11.102;2023-06-14T02:57:37;1.35;;;1.08;;
27804;SDS011;15183;51.350;11.102;2023-06-14T03:00:04;2.45;;;1.50;;
27804;SDS011;15183;51.350;11.102;2023-06-14T03:02:35;1.08;;;1.02;;
27804;SDS011;15183;51.350;11.102;2023-06-14T03:05:01;1.65;;;1.30;;
27804;SDS011;15183;51.350;11.102;2023-06-14T03:07:28;2.65;;;1.30;;
27804;SDS011;15183;51.350;11.102;2023-06-14T03:09:55;1.25;;;1.15;;
27804;SDS011;15183;51.350;11.102;2023-06-14T03:12:21;1.25;;;1.10;;
27804;SDS011;15183;51.350;11.102;2023-06-14T03:14:49;2.13;;;1.30;;
27804;SDS011;15183;51.350;11.102;2023-06-14T03:17:16;2.13;;;1.67;;
27804;SDS011;15183;51.350;11.102;2023-06-14T03:19:45;3.00;;;1.35;;
27804;SDS011;15183;51.350;11.102;2023-06-14T03:22:11;3.22;;;1.45;;
27804;SDS011;15183;51.350;11.102;2023-06-14T03:24:38;1.20;;;1.08;;
27804;SDS011;15183;51.350;11.102;2023-06-14T03:27:05;2.67;;;1.13;;
27804;SDS011;15183;51.350;11.102;2023-06-14T03:29:31;1.75;;;1.00;;
27804;SDS011;15183;51.350;11.102;2023-06-14T03:32:01;1.38;;;1.08;;
27804;SDS011;15183;51.350;11.102;2023-06-14T03:34:29;1.77;;;1.40;;
27804;SDS011;15183;51.350;11.102;2023-06-14T03:36:56;3.47;;;1.50;;
27804;SDS011;15183;51.350;11.102;2023-06-14T03:39:22;1.95;;;1.20;;
27804;SDS011;15183;51.350;11.102;2023-06-14T03:41:48;2.95;;;1.02;;
27804;SDS011;15183;51.350;11.102;2023-06-14T03:44:18;1.27;;;1.13;;
27804;SDS011;15183;51.350;11.102;2023-06-14T03:46:45;1.65;;;1.30;;
27804;SDS011;15183;51.350;11.102;2023-06-14T03:49:12;2.03;;;1.27;;
27804;SDS011;15183;51.350;11.102;2023-06-14T03:51:39;3.25;;;1.50;;
27804;SDS011;15183;51.350;11.102;2023-06-14T03:54:05;1.90;;;1.55;;
27804;SDS011;15183;51.350;11.102;2023-06-14T03:56:32;1.80;;;1.13;;
27804;SDS011;15183;51.350;11.102;2023-06-14T03:58:59;2.35;;;1.20;;
27804;SDS011;15183;51.350;11.102;2023-06-14T04:01:25;1.45;;;1.00;;
27804;SDS011;15183;51.350;11.102;2023-06-14T04:03:55;1.30;;;1.20;;
27804;SDS011;15183;51.350;11.102;2023-06-14T04:06:23;4.00;;;1.08;;
27804;SDS011;15183;51.350;11.102;2023-06-14T04:08:51;1.15;;;1.05;;
27804;SDS011;15183;51.350;11.102;2023-06-14T04:11:17;1.10;;;1.00;;
27804;SDS011;15183;51.350;11.102;2023-06-14T04:13:44;1.23;;;1.13;;
27804;SDS011;15183;51.350;11.102;2023-06-14T04:16:10;4.78;;;1.27;;
27804;SDS011;15183;51.350;11.102;2023-06-14T04:18:37;1.80;;;0.90;;
27804;SDS011;15183;51.350;11.102;2023-06-14T04:21:03;1.02;;;0.93;;
27804;SDS011;15183;51.350;11.102;2023-06-14T04:23:30;1.67;;;1.08;;
27804;SDS011;15183;51.350;11.102;2023-06-14T04:25:56;5.85;;;2.67;;
27804;SDS011;15183;51.350;11.102;2023-06-14T04:28:27;3.33;;;2.38;;
27804;SDS011;15183;51.350;11.102;2023-06-14T04:30:54;3.53;;;2.00;;
27804;SDS011;15183;51.350;11.102;2023-06-14T04:33:20;3.63;;;2.97;;
27804;SDS011;15183;51.350;11.102;2023-06-14T04:35:48;3.47;;;2.92;;
27804;SDS011;15183;51.350;11.102;2023-06-14T04:38:19;1.92;;;1.80;;
27804;SDS011;15183;51.350;11.102;2023-06-14T04:40:50;4.63;;;2.38;;
27804;SDS011;15183;51.350;11.102;2023-06-14T04:43:18;2.97;;;1.80;;
27804;SDS011;15183;51.350;11.102;2023-06-14T04:45:51;4.38;;;3.08;;
27804;SDS011;15183;51.350;11.102;2023-06-14T04:48:20;3.60;;;3.10;;
27804;SDS011;15183;51.350;11.102;2023-06-14T04:50:48;6.47;;;2.67;;
27804;SDS011;15183;51.350;11.102;2023-06-14T04:53:18;5.07;;;4.28;;
27804;SDS011;15183;51.350;11.102;2023-06-14T04:55:48;3.17;;;2.03;;
27804;SDS011;15183;51.350;11.102;2023-06-14T04:58:16;3.47;;;2.65;;
27804;SDS011;15183;51.350;11.102;2023-06-14T05:00:42;3.55;;;1.90;;
27804;SDS011;15183;51.350;11.102;2023-06-14T05:03:09;4.65;;;1.77;;
27804;SDS011;15183;51.350;11.102;2023-06-14T05:05:41;2.88;;;2.03;;
27804;SDS011;15183;51.350;11.102;2023-06-14T05:08:08;1.45;;;1.35;;
27804;SDS011;15183;51.350;11.102;2023-06-14T05:10:35;1.45;;;1.35;;
27804;SDS011;15183;51.350;11.102;2023-06-14T05:13:01;1.83;;;1.50;;
27804;SDS011;15183;51.350;11.102;2023-06-14T05:15:28;1.40;;;1.30;;
27804;SDS011;15183;51.350;11.102;2023-06-14T05:17:55;4.38;;;1.52;;
27804;SDS011;15183;51.350;11.102;2023-06-14T05:20:22;3.22;;;1.35;;
27804;SDS011;15183;51.350;11.102;2023-06-14T05:22:53;2.08;;;1.70;;
27804;SDS011;15183;51.350;11.102;2023-06-14T05:25:20;2.85;;;1.70;;
27804;SDS011;15183;51.350;11.102;2023-06-14T05:27:46;1.83;;;1.60;;
27804;SDS011;15183;51.350;11.102;2023-06-14T05:30:13;2.05;;;1.50;;
27804;SDS011;15183;51.350;11.102;2023-06-14T05:32:41;3.78;;;1.70;;
27804;SDS011;15183;51.350;11.102;2023-06-14T05:35:07;3.40;;;1.75;;
27804;SDS011;15183;51.350;11.102;2023-06-14T05:37:34;3.22;;;1.48;;
27804;SDS011;15183;51.350;11.102;2023-06-14T05:40:01;2.20;;;1.77;;
27804;SDS011;15183;51.350;11.102;2023-06-14T05:42:30;2.03;;;1.40;;
27804;SDS011;15183;51.350;11.102;2023-06-14T05:44:58;6.85;;;1.83;;
27804;SDS011;15183;51.350;11.102;2023-06-14T05:47:24;2.80;;;1.85;;
27804;SDS011;15183;51.350;11.102;2023-06-14T05:49:53;3.83;;;1.55;;
27804;SDS011;15183;51.350;11.102;2023-06-14T05:52:20;3.10;;;1.50;;
27804;SDS011;15183;51.350;11.102;2023-06-14T05:54:47;2.40;;;2.15;;
27804;SDS011;15183;51.350;11.102;2023-06-14T05:57:13;2.17;;;1.77;;
27804;SDS011;15183;51.350;11.102;2023-06-14T05:59:40;2.25;;;1.88;;
27804;SDS011;15183;51.350;11.102;2023-06-14T06:02:06;2.13;;;1.60;;
27804;SDS011;15183;51.350;11.102;2023-06-14T06:04:33;12.27;;;2.53;;
27804;SDS011;15183;51.350;11.102;2023-06-14T06:06:59;2.10;;;1.70;;
27804;SDS011;15183;51.350;11.102;2023-06-14T06:09:26;3.15;;;1.88;;
27804;SDS011;15183;51.350;11.102;2023-06-14T06:11:52;3.33;;;2.05;;
27804;SDS011;15183;51.350;11.102;2023-06-14T06:14:19;4.65;;;2.13;;
27804;SDS011;15183;51.350;11.102;2023-06-14T06:16:45;8.98;;;2.08;;
27804;SDS011;15183;51.350;11.102;2023-06-14T06:19:12;3.15;;;2.10;;
27804;SDS011;15183;51.350;11.102;2023-06-14T06:21:38;2.47;;;2.28;;
27804;SDS011;15183;51.350;11.102;2023-06-14T06:24:05;2.30;;;2.03;;
27804;SDS011;15183;51.350;11.102;2023-06-14T06:26:32;4.28;;;2.47;;
27804;SDS011;15183;51.350;11.102;2023-06-14T06:28:58;4.50;;;2.55;;
27804;SDS011;15183;51.350;11.102;2023-06-14T06:31:24;2.72;;;2.13;;
27804;SDS011;15183;51.350;11.102;2023-06-14T06:33:53;3.25;;;2.10;;
27804;SDS011;15183;51.350;11.102;2023-06-14T06:36:20;2.70;;;2.22;;
27804;SDS011;15183;51.350;11.102;2023-06-14T06:38:47;3.58;;;2.25;;
27804;SDS011;15183;51.350;11.102;2023-06-14T06:41:14;4.15;;;2.45;;
27804;SDS011;15183;51.350;11.102;2023-06-14T06:43:40;3.70;;;2.40;;
27804;SDS011;15183;51.350;11.102;2023-06-14T06:46:07;3.85;;;2.88;;
27804;SDS011;15183;51.350;11.102;2023-06-14T06:48:33;2.55;;;2.22;;
27804;SDS011;15183;51.350;11.102;2023-06-14T06:51:00;7.80;;;2.60;;
27804;SDS011;15183;51.350;11.102;2023-06-14T06:53:26;6.70;;;2.58;;
27804;SDS011;15183;51.350;11.102;2023-06-14T06:55:53;3.80;;;2.90;;
27804;SDS011;15183;51.350;11.102;2023-06-14T06:58:19;5.25;;;2.83;;
27804;SDS011;15183;51.350;11.102;2023-06-14T07:00:47;3.90;;;2.53;;
27804;SDS011;15183;51.350;11.102;2023-06-14T07:03:14;7.22;;;3.20;;
27804;SDS011;15183;51.350;11.102;2023-06-14T07:05:40;3.55;;;2.70;;
27804;SDS011;15183;51.350;11.102;2023-06-14T07:08:06;3.95;;;3.38;;
27804;SDS011;15183;51.350;11.102;2023-06-14T07:10:33;4.78;;;2.95;;
27804;SDS011;15183;51.350;11.102;2023-06-14T07:13:00;3.00;;;2.22;;
27804;SDS011;15183;51.350;11.102;2023-06-14T07:15:26;3.63;;;2.60;;
27804;SDS011;15183;51.350;11.102;2023-06-14T07:17:53;4.70;;;3.67;;
27804;SDS011;15183;51.350;11.102;2023-06-14T07:20:19;6.55;;;3.60;;
27804;SDS011;15183;51.350;11.102;2023-06-14T07:22:47;4.57;;;3.65;;
27804;SDS011;15183;51.350;11.102;2023-06-14T07:25:13;7.00;;;3.45;;
27804;SDS011;15183;51.350;11.102;2023-06-14T07:27:43;4.85;;;3.03;;
27804;SDS011;15183;51.350;11.102;2023-06-14T07:30:11;6.60;;;3.05;;
27804;SDS011;15183;51.350;11.102;2023-06-14T07:32:38;3.97;;;3.22;;
27804;SDS011;15183;51.350;11.102;2023-06-14T07:35:05;8.30;;;3.50;;
27804;SDS011;15183;51.350;11.102;2023-06-14T07:37:33;8.45;;;3.45;;
27804;SDS011;15183;51.350;11.102;2023-06-14T07:39:59;6.35;;;3.30;;
27804;SDS011;15183;51.350;11.102;2023-06-14T07:42:25;9.48;;;3.33;;
27804;SDS011;15183;51.350;11.102;2023-06-14T07:44:52;4.05;;;3.63;;
27804;SDS011;15183;51.350;11.102;2023-06-14T07:47:19;4.00;;;3.35;;
27804;SDS011;15183;51.350;11.102;2023-06-14T07:49:46;5.72;;;3.10;;
27804;SDS011;15183;51.350;11.102;2023-06-14T07:52:12;7.78;;;3.33;;
27804;SDS011;15183;51.350;11.102;2023-06-14T07:54:39;3.70;;;3.30;;
27804;SDS011;15183;51.350;11.102;2023-06-14T07:57:06;10.00;;;2.85;;
27804;SDS011;15183;51.350;11.102;2023-06-14T07:59:33;3.05;;;2.85;;
27804;SDS011;15183;51.350;11.102;2023-06-14T08:01:59;6.60;;;3.00;;
27804;SDS011;15183;51.350;11.102;2023-06-14T08:04:25;4.70;;;2.88;;
27804;SDS011;15183;51.350;11.102;2023-06-14T08:06:52;4.57;;;3.70;;
27804;SDS011;15183;51.350;11.102;2023-06-14T08:09:18;3.75;;;3.08;;
27804;SDS011;15183;51.350;11.102;2023-06-14T08:11:45;3.50;;;3.00;;
27804;SDS011;15183;51.350;11.102;2023-06-14T08:14:11;5.32;;;2.83;;
27804;SDS011;15183;51.350;11.102;2023-06-14T08:16:38;3.83;;;3.45;;
27804;SDS011;15183;51.350;11.102;2023-06-14T08:19:04;7.93;;;3.10;;
27804;SDS011;15183;51.350;11.102;2023-06-14T08:21:31;4.88;;;3.25;;
27804;SDS011;15183;51.350;11.102;2023-06-14T08:23:59;5.72;;;3.38;;
27804;SDS011;15183;51.350;11.102;2023-06-14T08:26:26;4.43;;;3.30;;
27804;SDS011;15183;51.350;11.102;2023-06-14T08:28:55;5.15;;;2.75;;
27804;SDS011;15183;51.350;11.102;2023-06-14T08:31:22;3.22;;;2.92;;
27804;SDS011;15183;51.350;11.102;2023-06-14T08:33:49;6.15;;;3.38;;
27804;SDS011;15183;51.350;11.102;2023-06-14T08:36:16;4.60;;;3.70;;
27804;SDS011;15183;51.350;11.102;2023-06-14T08:38:43;6.82;;;3.13;;
27804;SDS011;15183;51.350;11.102;2023-06-14T08:41:09;3.10;;;2.80;;
27804;SDS011;15183;51.350;11.102;2023-06-14T08:43:39;3.55;;;2.97;;
27804;SDS011;15183;51.350;11.102;2023-06-14T08:46:05;3.70;;;2.75;;
27804;SDS011;15183;51.350;11.102;2023-06-14T08:48:34;5.75;;;2.88;;
27804;SDS011;15183;51.350;11.102;2023-06-14T08:51:00;10.68;;;3.70;;
27804;SDS011;15183;51.350;11.102;2023-06-14T08:53:32;4.13;;;2.67;;
27804;SDS011;15183;51.350;11.102;2023-06-14T08:55:59;4.40;;;3.08;;
27804;SDS011;15183;51.350;11.102;2023-06-14T08:58:30;8.23;;;3.00;;
27804;SDS011;15183;51.350;11.102;2023-06-14T09:00:59;6.30;;;2.67;;
27804;SDS011;15183;51.350;11.102;2023-06-14T09:03:30;6.18;;;2.88;;
27804;SDS011;15183;51.350;11.102;2023-06-14T09:05:58;8.20;;;2.90;;
27804;SDS011;15183;51.350;11.102;2023-06-14T09:08:25;6.88;;;2.75;;
27804;SDS011;15183;51.350;11.102;2023-06-14T09:10:56;3.15;;;2.75;;
27804;SDS011;15183;51.350;11.102;2023-06-14T09:13:23;3.15;;;2.85;;
27804;SDS011;15183;51.350;11.102;2023-06-14T09:15:49;5.47;;;3.20;;
27804;SDS011;15183;51.350;11.102;2023-06-14T09:18:16;4.45;;;2.50;;
27804;SDS011;15183;51.350;11.102;2023-06-14T09:20:43;5.43;;;2.60;;
27804;SDS011;15183;51.350;11.102;2023-06-14T09:23:10;6.68;;;2.95;;
27804;SDS011;15183;51.350;11.102;2023-06-14T09:25:43;4.47;;;3.85;;
27804;SDS011;15183;51.350;11.102;2023-06-14T09:28:11;3.53;;;2.72;;
27804;SDS011;15183;51.350;11.102;2023-06-14T09:30:37;6.72;;;3.15;;
27804;SDS011;15183;51.350;11.102;2023-06-14T09:33:04;3.92;;;2.58;;
27804;SDS011;15183;51.350;11.102;2023-06-14T09:35:31;2.40;;;2.17;;
27804;SDS011;15183;51.350;11.102;2023-06-14T09:37:59;14.00;;;2.30;;
27804;SDS011;15183;51.350;11.102;2023-06-14T09:40:26;6.50;;;2.40;;
27804;SDS011;15183;51.350;11.102;2023-06-14T09:42:53;9.35;;;2.80;;
27804;SDS011;15183;51.350;11.102;2023-06-14T09:45:20;6.53;;;2.80;;
27804;SDS011;15183;51.350;11.102;2023-06-14T09:47:51;2.90;;;2.20;;
27804;SDS011;15183;51.350;11.102;2023-06-14T09:50:17;2.92;;;2.70;;
27804;SDS011;15183;51.350;11.102;2023-06-14T09:52:44;7.68;;;2.92;;
27804;SDS011;15183;51.350;11.102;2023-06-14T09:55:13;3.20;;;2.90;;
27804;SDS011;15183;51.350;11.102;2023-06-14T09:57:43;2.80;;;2.60;;
27804;SDS011;15183;51.350;11.102;2023-06-14T10:00:13;5.13;;;3.53;;
27804;SDS011;15183;51.350;11.102;2023-06-14T10:02:44;3.42;;;3.00;;
27804;SDS011;15183;51.350;11.102;2023-06-14T10:10:18;4.38;;;3.10;;
27804;SDS011;15183;51.350;11.102;2023-06-14T10:12:45;5.43;;;2.88;;
27804;SDS011;15183;51.350;11.102;2023-06-14T10:15:15;4.13;;;3.58;;
27804;SDS011;15183;51.350;11.102;2023-06-14T10:17:54;6.18;;;3.42;;
27804;SDS011;15183;51.350;11.102;2023-06-14T10:20:40;4.97;;;3.00;;
27804;SDS011;15183;51.350;11.102;2023-06-14T10:23:20;5.97;;;2.80;;
27804;SDS011;15183;51.350;11.102;2023-06-14T10:25:50;4.63;;;2.85;;
27804;SDS011;15183;51.350;11.102;2023-06-14T10:28:20;3.60;;;2.42;;
27804;SDS011;15183;51.350;11.102;2023-06-14T10:33:33;3.63;;;2.75;;
27804;SDS011;15183;51.350;11.102;2023-06-14T10:36:29;2.58;;;1.90;;
27804;SDS011;15183;51.350;11.102;2023-06-14T10:38:57;8.52;;;4.25;;
27804;SDS011;15183;51.350;11.102;2023-06-14T10:41:53;9.18;;;2.80;;
27804;SDS011;15183;51.350;11.102;2023-06-14T10:49:36;4.95;;;4.13;;
27804;SDS011;15183;51.350;11.102;2023-06-14T10:52:08;3.35;;;1.77;;
27804;SDS011;15183;51.350;11.102;2023-06-14T10:54:57;2.50;;;2.30;;
27804;SDS011;15183;51.350;11.102;2023-06-14T10:57:40;2.28;;;1.92;;
27804;SDS011;15183;51.350;11.102;2023-06-14T11:00:11;3.72;;;1.90;;
27804;SDS011;15183;51.350;11.102;2023-06-14T11:06:13;1.88;;;1.60;;
27804;SDS011;15183;51.350;11.102;2023-06-14T11:08:52;2.30;;;2.10;;
27804;SDS011;15183;51.350;11.102;2023-06-14T11:11:42;6.47;;;1.95;;
27804;SDS011;15183;51.350;11.102;2023-06-14T11:14:09;4.25;;;2.03;;
27804;SDS011;15183;51.350;11.102;2023-06-14T11:16:36;1.92;;;1.63;;
27804;SDS011;15183;51.350;11.102;2023-06-14T11:19:02;2.30;;;1.85;;
27804;SDS011;15183;51.350;11.102;2023-06-14T11:21:29;6.32;;;1.85;;
27804;SDS011;15183;51.350;11.102;2023-06-14T11:23:58;2.88;;;1.92;;
27804;SDS011;15183;51.350;11.102;2023-06-14T11:26:25;3.55;;;2.00;;
27804;SDS011;15183;51.350;11.102;2023-06-14T11:28:57;3.90;;;2.00;;
27804;SDS011;15183;51.350;11.102;2023-06-14T11:31:25;2.65;;;1.90;;
27804;SDS011;15183;51.350;11.102;2023-06-14T11:33:54;2.55;;;1.80;;
27804;SDS011;15183;51.350;11.102;2023-06-14T11:36:23;2.17;;;1.98;;
27804;SDS011;15183;51.350;11.102;2023-06-14T11:39:02;1.95;;;1.73;;
27804;SDS011;15183;51.350;11.102;2023-06-14T11:41:32;2.17;;;1.98;;
27804;SDS011;15183;51.350;11.102;2023-06-14T11:44:04;2.13;;;1.50;;
27804;SDS011;15183;51.350;11.102;2023-06-14T11:46:32;1.98;;;1.88;;
27804;SDS011;15183;51.350;11.102;2023-06-14T11:49:00;2.38;;;1.70;;
27804;SDS011;15183;51.350;11.102;2023-06-14T11:51:32;1.60;;;1.50;;
27804;SDS011;15183;51.350;11.102;2023-06-14T11:54:01;2.47;;;2.20;;
27804;SDS011;15183;51.350;11.102;2023-06-14T11:56:29;2.42;;;1.80;;
27804;SDS011;15183;51.350;11.102;2023-06-14T11:58:57;2.35;;;2.10;;
27804;SDS011;15183;51.350;11.102;2023-06-14T12:01:24;3.15;;;1.95;;
27804;SDS011;15183;51.350;11.102;2023-06-14T12:03:52;3.05;;;1.80;;
27804;SDS011;15183;51.350;11.102;2023-06-14T12:06:27;4.28;;;1.98;;
27804;SDS011;15183;51.350;11.102;2023-06-14T12:08:58;2.75;;;2.03;;
27804;SDS011;15183;51.350;11.102;2023-06-14T12:11:34;2.85;;;1.73;;
27804;SDS011;15183;51.350;11.102;2023-06-14T12:14:02;1.80;;;1.70;;
27804;SDS011;15183;51.350;11.102;2023-06-14T12:16:34;3.40;;;1.85;;
27804;SDS011;15183;51.350;11.102;2023-06-14T12:19:16;3.35;;;1.60;;
27804;SDS011;15183;51.350;11.102;2023-06-14T12:21:45;3.67;;;1.27;;
27804;SDS011;15183;51.350;11.102;2023-06-14T12:24:16;1.45;;;1.35;;
27804;SDS011;15183;51.350;11.102;2023-06-14T12:26:43;1.98;;;1.55;;
27804;SDS011;15183;51.350;11.102;2023-06-14T12:29:09;1.85;;;1.20;;
27804;SDS011;15183;51.350;11.102;2023-06-14T12:31:37;2.33;;;1.40;;
27804;SDS011;15183;51.350;11.102;2023-06-14T12:34:04;1.75;;;1.13;;
27804;SDS011;15183;51.350;11.102;2023-06-14T12:36:30;1.50;;;1.35;;
27804;SDS011;15183;51.350;11.102;2023-06-14T12:38:57;1.58;;;1.20;;
27804;SDS011;15183;51.350;11.102;2023-06-14T12:41:24;2.10;;;1.30;;
27804;SDS011;15183;51.350;11.102;2023-06-14T12:43:52;2.83;;;1.20;;
27804;SDS011;15183;51.350;11.102;2023-06-14T12:46:18;2.60;;;1.45;;
27804;SDS011;15183;51.350;11.102;2023-06-14T12:48:45;2.03;;;1.33;;
27804;SDS011;15183;51.350;11.102;2023-06-14T12:51:11;1.80;;;1.50;;
27804;SDS011;15183;51.350;11.102;2023-06-14T12:53:37;3.58;;;1.15;;
27804;SDS011;15183;51.350;11.102;2023-06-14T12:56:04;4.47;;;1.67;;
27804;SDS011;15183;51.350;11.102;2023-06-14T12:58:30;1.67;;;1.45;;
27804;SDS011;15183;51.350;11.102;2023-06-14T13:00:57;2.88;;;1.50;;
27804;SDS011;15183;51.350;11.102;2023-06-14T13:03:23;3.40;;;1.25;;
27804;SDS011;15183;51.350;11.102;2023-06-14T13:05:50;1.77;;;1.33;;
27804;SDS011;15183;51.350;11.102;2023-06-14T13:08:16;4.50;;;1.60;;
27804;SDS011;15183;51.350;11.102;2023-06-14T13:10:42;2.63;;;1.40;;
27804;SDS011;15183;51.350;11.102;2023-06-14T13:13:09;3.85;;;1.38;;
27804;SDS011;15183;51.350;11.102;2023-06-14T13:15:37;4.97;;;1.40;;
27804;SDS011;15183;51.350;11.102;2023-06-14T13:18:04;3.00;;;1.35;;
27804;SDS011;15183;51.350;11.102;2023-06-14T13:20:31;1.77;;;1.50;;
27804;SDS011;15183;51.350;11.102;2023-06-14T13:22:58;1.95;;;1.15;;
27804;SDS011;15183;51.350;11.102;2023-06-14T13:25:25;3.35;;;1.80;;
27804;SDS011;15183;51.350;11.102;2023-06-14T13:27:51;7.20;;;1.40;;
27804;SDS011;15183;51.350;11.102;2023-06-14T13:30:18;6.57;;;2.47;;
27804;SDS011;15183;51.350;11.102;2023-06-14T13:32:44;2.20;;;1.42;;
27804;SDS011;15183;51.350;11.102;2023-06-14T13:35:11;3.20;;;1.60;;
27804;SDS011;15183;51.350;11.102;2023-06-14T13:37:37;2.10;;;1.40;;
27804;SDS011;15183;51.350;11.102;2023-06-14T13:40:04;3.38;;;1.60;;
27804;SDS011;15183;51.350;11.102;2023-06-14T13:42:31;1.90;;;1.50;;
27804;SDS011;15183;51.350;11.102;2023-06-14T13:44:58;4.70;;;1.80;;
27804;SDS011;15183;51.350;11.102;2023-06-14T13:47:24;4.53;;;2.17;;
27804;SDS011;15183;51.350;11.102;2023-06-14T13:49:51;2.22;;;2.00;;
27804;SDS011;15183;51.350;11.102;2023-06-14T13:52:17;1.77;;;1.67;;
27804;SDS011;15183;51.350;11.102;2023-06-14T13:54:44;4.38;;;1.92;;
27804;SDS011;15183;51.350;11.102;2023-06-14T13:57:10;3.00;;;1.75;;
27804;SDS011;15183;51.350;11.102;2023-06-14T13:59:38;2.70;;;1.98;;
27804;SDS011;15183;51.350;11.102;2023-06-14T14:02:06;2.92;;;1.95;;
27804;SDS011;15183;51.350;11.102;2023-06-14T14:04:33;3.10;;;1.90;;
27804;SDS011;15183;51.350;11.102;2023-06-14T14:07:03;2.13;;;1.83;;
27804;SDS011;15183;51.350;11.102;2023-06-14T14:09:31;3.92;;;2.08;;
27804;SDS011;15183;51.350;11.102;2023-06-14T14:12:01;3.00;;;1.80;;
27804;SDS011;15183;51.350;11.102;2023-06-14T14:14:28;2.35;;;2.13;;
27804;SDS011;15183;51.350;11.102;2023-06-14T14:16:55;2.58;;;1.88;;
27804;SDS011;15183;51.350;11.102;2023-06-14T14:19:22;9.80;;;2.15;;
27804;SDS011;15183;51.350;11.102;2023-06-14T14:21:49;5.13;;;2.22;;
27804;SDS011;15183;51.350;11.102;2023-06-14T14:24:15;4.47;;;2.17;;
27804;SDS011;15183;51.350;11.102;2023-06-14T14:26:42;2.17;;;2.08;;
27804;SDS011;15183;51.350;11.102;2023-06-14T14:29:08;4.00;;;2.28;;
27804;SDS011;15183;51.350;11.102;2023-06-14T14:31:37;6.47;;;4.85;;
27804;SDS011;15183;51.350;11.102;2023-06-14T14:34:03;3.40;;;2.97;;
27804;SDS011;15183;51.350;11.102;2023-06-14T14:36:30;3.80;;;2.58;;
27804;SDS011;15183;51.350;11.102;2023-06-14T14:38:56;2.78;;;2.10;;
27804;SDS011;15183;51.350;11.102;2023-06-14T14:41:23;5.97;;;2.20;;
27804;SDS011;15183;51.350;11.102;2023-06-14T14:43:49;4.85;;;2.15;;
27804;SDS011;15183;51.350;11.102;2023-06-14T14:46:16;6.47;;;2.03;;
27804;SDS011;15183;51.350;11.102;2023-06-14T14:48:42;2.25;;;2.05;;
27804;SDS011;15183;51.350;11.102;2023-06-14T14:51:09;2.95;;;2.08;;
27804;SDS011;15183;51.350;11.102;2023-06-14T14:53:35;3.03;;;1.98;;
27804;SDS011;15183;51.350;11.102;2023-06-14T14:56:03;4.97;;;2.33;;